createdAt,value
2023-02-21T00:02:45.030Z,9.57
2023-02-21T00:05:30.642Z,1.92
2023-02-21T00:08:16.117Z,3.42
2023-02-21T00:11:01.520Z,2.30
2023-02-21T00:13:46.791Z,0.93
2023-02-21T00:16:36.965Z,4.47
2023-02-21T00:19:23.242Z,2.50
2023-02-21T00:22:08.472Z,3.50
2023-02-21T00:24:54.042Z,4.53
2023-02-21T00:27:39.377Z,2.78
2023-02-21T00:30:25.956Z,0.73
2023-02-21T00:33:11.234Z,4.82
2023-02-21T00:35:56.612Z,4.47
2023-02-21T00:38:41.781Z,3.00
2023-02-21T00:41:27.003Z,3.90
2023-02-21T00:44:12.458Z,4.03
2023-02-21T00:46:57.982Z,6.70
2023-02-21T00:49:43.208Z,3.20
2023-02-21T00:52:28.482Z,2.15
2023-02-21T00:55:13.778Z,2.67
2023-02-21T00:57:59.000Z,3.88
2023-02-21T01:00:44.407Z,2.80
2023-02-21T01:03:30.244Z,2.28
2023-02-21T01:06:15.928Z,6.20
2023-02-21T01:09:03.584Z,9.77
2023-02-21T01:11:49.475Z,3.75
2023-02-21T01:14:35.324Z,4.65
2023-02-21T01:17:21.058Z,4.18
2023-02-21T01:20:06.753Z,1.77
2023-02-21T01:22:52.027Z,1.02
2023-02-21T01:25:37.316Z,5.80
2023-02-21T01:28:22.684Z,1.67
2023-02-21T01:31:07.829Z,1.58
2023-02-21T01:33:57.785Z,1.50
2023-02-21T01:36:44.202Z,2.42
2023-02-21T01:39:29.672Z,1.35
2023-02-21T01:42:14.725Z,2.65
2023-02-21T01:45:03.158Z,2.42
2023-02-21T01:47:48.980Z,8.55
2023-02-21T01:50:45.332Z,3.08
2023-02-21T01:53:38.305Z,1.70
2023-02-21T01:56:24.678Z,5.88
2023-02-21T01:59:12.907Z,7.45
2023-02-21T02:02:05.123Z,2.03
2023-02-21T02:04:51.716Z,2.25
2023-02-21T02:07:38.312Z,1.23
2023-02-21T02:10:25.774Z,1.42
2023-02-21T02:13:17.594Z,1.35
2023-02-21T02:16:02.172Z,3.47
2023-02-21T02:18:47.878Z,2.53
2023-02-21T02:21:34.287Z,2.13
2023-02-21T02:24:32.988Z,2.40
2023-02-21T02:27:13.960Z,2.65
2023-02-21T02:30:14.988Z,4.93
2023-02-21T02:32:53.958Z,2.50
2023-02-21T02:35:33.969Z,2.67
2023-02-21T02:38:01.505Z,1.80
2023-02-21T02:40:53.597Z,2.13
2023-02-21T02:43:44.596Z,3.13
2023-02-21T02:46:20.838Z,2.70
2023-02-21T02:48:55.394Z,4.55
2023-02-21T02:51:22.656Z,4.07
2023-02-21T02:53:49.293Z,4.07
2023-02-21T02:56:17.867Z,2.60
2023-02-21T02:58:54.933Z,3.55
2023-02-21T03:01:43.355Z,6.65
2023-02-21T03:04:31.071Z,5.63
2023-02-21T03:07:23.925Z,1.33
2023-02-21T03:10:13.844Z,2.88
2023-02-21T03:13:18.048Z,1.75
2023-02-21T03:15:52.140Z,1.33
2023-02-21T03:18:30.781Z,4.82
2023-02-21T03:21:01.360Z,7.70
2023-02-21T03:23:34.751Z,2.17
2023-02-21T03:26:06.611Z,2.42
2023-02-21T03:28:35.084Z,3.72
2023-02-21T03:31:05.777Z,2.47
2023-02-21T03:33:33.241Z,2.80
2023-02-21T03:36:03.434Z,1.83
2023-02-21T03:38:31.932Z,2.28
2023-02-21T03:40:58.786Z,2.40
2023-02-21T03:43:25.393Z,5.43
2023-02-21T03:45:52.030Z,3.10
2023-02-21T03:48:31.091Z,8.30
2023-02-21T03:50:59.554Z,3.83
2023-02-21T03:53:26.714Z,6.82
2023-02-21T03:55:53.378Z,6.07
2023-02-21T03:58:20.112Z,8.52
2023-02-21T04:00:47.110Z,9.75
2023-02-21T04:03:14.116Z,10.52
2023-02-21T04:05:40.750Z,9.82
2023-02-21T04:08:07.537Z,4.93
2023-02-21T04:10:38.224Z,6.75
2023-02-21T04:13:13.748Z,4.15
2023-02-21T04:15:40.616Z,3.67
2023-02-21T04:18:07.525Z,4.40
2023-02-21T04:20:34.145Z,4.75
2023-02-21T04:23:03.586Z,7.07
2023-02-21T04:25:30.699Z,8.18
2023-02-21T04:27:57.353Z,8.20
2023-02-21T04:30:24.880Z,2.75
2023-02-21T04:32:51.920Z,4.95
2023-02-21T04:35:18.885Z,4.85
2023-02-21T04:37:45.916Z,6.20
2023-02-21T04:40:12.779Z,6.93
2023-02-21T04:42:39.590Z,8.73
2023-02-21T04:45:06.589Z,2.20
2023-02-21T04:47:33.379Z,8.63
2023-02-21T04:50:00.153Z,3.70
2023-02-21T04:52:27.262Z,5.30
2023-02-21T04:54:53.854Z,9.80
2023-02-21T04:57:20.754Z,5.20
2023-02-21T04:59:47.765Z,4.45
2023-02-21T05:02:14.583Z,5.38
2023-02-21T05:04:43.072Z,5.43
2023-02-21T05:07:10.068Z,9.52
2023-02-21T05:09:36.645Z,16.27
2023-02-21T05:12:03.424Z,7.70
2023-02-21T05:14:30.032Z,7.72
2023-02-21T05:16:56.663Z,9.10
2023-02-21T05:19:30.768Z,4.80
2023-02-21T05:22:00.165Z,15.35
2023-02-21T05:24:28.622Z,9.90
2023-02-21T05:26:56.404Z,2.95
2023-02-21T05:29:23.317Z,4.38
2023-02-21T05:31:50.025Z,6.25
2023-02-21T05:34:19.179Z,20.90
2023-02-21T05:36:46.449Z,11.90
2023-02-21T05:39:13.201Z,2.10
2023-02-21T05:41:45.990Z,9.80
2023-02-21T05:44:12.774Z,14.88
2023-02-21T05:46:39.559Z,19.95
2023-02-21T05:49:06.467Z,4.13
2023-02-21T05:51:41.566Z,21.67
2023-02-21T05:54:09.847Z,4.05
2023-02-21T05:56:41.064Z,3.72
2023-02-21T05:59:08.867Z,9.82
2023-02-21T06:01:36.247Z,4.15
2023-02-21T06:04:03.199Z,8.43
2023-02-21T06:06:30.016Z,9.10
2023-02-21T06:08:56.840Z,7.95
2023-02-21T06:11:26.204Z,6.07
2023-02-21T06:13:54.319Z,10.68
2023-02-21T06:16:21.834Z,11.18
2023-02-21T06:18:53.780Z,11.90
2023-02-21T06:21:20.987Z,4.88
2023-02-21T06:23:47.622Z,8.00
2023-02-21T06:26:15.636Z,14.38
2023-02-21T06:28:42.711Z,6.30
2023-02-21T06:31:09.478Z,7.47
2023-02-21T06:33:36.365Z,4.18
2023-02-21T06:36:08.193Z,17.30
2023-02-21T06:38:35.183Z,3.67
2023-02-21T06:41:09.180Z,11.00
2023-02-21T06:43:39.356Z,6.30
2023-02-21T06:46:05.999Z,9.38
2023-02-21T06:48:35.352Z,18.48
2023-02-21T06:51:03.192Z,7.00
2023-02-21T06:53:29.965Z,12.30
2023-02-21T06:55:56.573Z,9.63
2023-02-21T06:58:23.248Z,6.25
2023-02-21T07:00:50.107Z,7.90
2023-02-21T07:03:16.975Z,11.13
2023-02-21T07:05:44.158Z,7.43
2023-02-21T07:08:10.793Z,11.15
2023-02-21T07:10:37.425Z,11.93
2023-02-21T07:13:04.488Z,13.30
2023-02-21T07:15:31.144Z,16.70
2023-02-21T07:17:57.771Z,16.55
2023-02-21T07:20:25.012Z,9.65
2023-02-21T07:22:51.844Z,10.40
2023-02-21T07:25:20.891Z,9.32
2023-02-21T07:27:48.444Z,10.70
2023-02-21T07:30:16.764Z,9.15
2023-02-21T07:32:43.507Z,9.77
2023-02-21T07:35:10.194Z,8.93
2023-02-21T07:37:36.937Z,5.28
2023-02-21T07:40:04.664Z,12.93
2023-02-21T07:42:31.324Z,15.27
2023-02-21T07:44:58.432Z,12.45
2023-02-21T07:47:26.513Z,17.13
2023-02-21T07:49:54.157Z,8.77
2023-02-21T07:52:25.233Z,11.32
2023-02-21T07:54:51.989Z,15.02
2023-02-21T07:57:19.279Z,7.07
2023-02-21T07:59:47.402Z,20.33
2023-02-21T08:02:14.881Z,8.57
2023-02-21T08:04:42.522Z,16.45
2023-02-21T08:07:09.579Z,10.15
2023-02-21T08:09:37.246Z,16.73
2023-02-21T08:12:04.470Z,5.93
2023-02-21T08:14:31.134Z,6.63
2023-02-21T08:16:57.693Z,6.72
2023-02-21T08:19:24.343Z,12.18
2023-02-21T08:21:51.723Z,11.18
2023-02-21T08:24:19.368Z,12.70
2023-02-21T08:26:47.408Z,7.03
2023-02-21T08:29:15.178Z,15.70
2023-02-21T08:31:45.974Z,2.67
2023-02-21T08:34:13.087Z,6.75
2023-02-21T08:36:43.619Z,2.22
2023-02-21T08:39:11.344Z,13.98
2023-02-21T08:41:43.945Z,5.68
2023-02-21T08:44:12.998Z,7.90
2023-02-21T08:46:40.905Z,12.07
2023-02-21T08:49:08.603Z,8.07
2023-02-21T08:51:36.316Z,8.10
2023-02-21T08:54:04.097Z,11.82
2023-02-21T08:56:32.811Z,6.10
2023-02-21T08:58:59.491Z,10.15
2023-02-21T09:01:33.235Z,8.32
2023-02-21T09:04:00.676Z,8.05
2023-02-21T09:06:27.263Z,6.95
2023-02-21T09:08:54.009Z,7.70
2023-02-21T09:11:20.582Z,6.13
2023-02-21T09:13:47.449Z,22.38
2023-02-21T09:16:14.058Z,9.07
2023-02-21T09:18:40.683Z,9.95
2023-02-21T09:21:07.907Z,11.38
2023-02-21T09:23:34.707Z,7.22
2023-02-21T09:26:01.408Z,8.02
2023-02-21T09:28:29.372Z,8.07
2023-02-21T09:30:56.191Z,10.15
2023-02-21T09:33:24.886Z,6.47
2023-02-21T09:35:52.046Z,6.38
2023-02-21T09:38:18.702Z,8.27
2023-02-21T09:40:51.460Z,9.38
2023-02-21T09:43:26.583Z,8.45
2023-02-21T09:45:56.535Z,10.32
2023-02-21T09:48:25.899Z,10.88
2023-02-21T09:50:58.456Z,5.28
2023-02-21T09:53:29.947Z,11.50
2023-02-21T09:56:05.234Z,22.40
2023-02-21T09:58:33.415Z,12.30
2023-02-21T10:01:06.765Z,12.48
2023-02-21T10:04:15.065Z,8.93
2023-02-21T10:06:52.906Z,21.65
2023-02-21T10:09:37.236Z,6.68
2023-02-21T10:12:28.720Z,11.63
2023-02-21T10:15:20.308Z,8.57
2023-02-21T10:18:08.636Z,12.77
2023-02-21T10:20:41.094Z,7.05
2023-02-21T10:23:17.237Z,6.03
2023-02-21T10:25:47.511Z,10.45
2023-02-21T10:28:20.900Z,11.18
2023-02-21T10:30:50.109Z,5.43
2023-02-21T10:33:17.084Z,7.40
2023-02-21T10:35:46.099Z,9.07
2023-02-21T10:38:26.132Z,6.78
2023-02-21T10:41:03.094Z,7.10
2023-02-21T10:43:41.919Z,7.88
2023-02-21T10:46:25.515Z,6.00
2023-02-21T10:48:55.556Z,9.75
2023-02-21T10:51:33.889Z,7.88
2023-02-21T10:54:21.439Z,10.07
2023-02-21T10:56:49.802Z,8.25
2023-02-21T10:59:29.394Z,5.00
2023-02-21T11:01:59.748Z,14.73
2023-02-21T11:04:29.086Z,3.17
2023-02-21T11:07:08.735Z,10.40
2023-02-21T11:09:50.129Z,8.95
2023-02-21T11:12:19.548Z,5.05
2023-02-21T11:15:15.986Z,6.05
2023-02-21T11:17:43.633Z,7.22
2023-02-21T11:20:23.493Z,13.18
2023-02-21T11:22:50.703Z,16.20
2023-02-21T11:25:23.462Z,7.00
2023-02-21T11:28:07.302Z,8.30
2023-02-21T11:30:37.507Z,8.02
2023-02-21T11:33:06.065Z,6.75
2023-02-21T11:35:43.556Z,15.13
2023-02-21T11:38:41.549Z,6.80
2023-02-21T11:41:17.493Z,8.07
2023-02-21T11:43:49.458Z,12.27
2023-02-21T11:46:40.458Z,10.93
2023-02-21T11:49:51.110Z,5.05
2023-02-21T11:53:00.501Z,8.35
2023-02-21T11:55:27.252Z,6.47
2023-02-21T11:58:10.114Z,8.82
2023-02-21T12:01:02.831Z,4.40
2023-02-21T12:03:57.591Z,2.30
2023-02-21T12:07:06.547Z,3.63
2023-02-21T12:10:21.104Z,8.40
2023-02-21T12:12:58.536Z,3.53
2023-02-21T12:15:31.188Z,11.50
2023-02-21T12:18:11.105Z,9.77
2023-02-21T12:21:06.111Z,2.55
2023-02-21T12:23:54.700Z,3.17
2023-02-21T12:26:43.002Z,4.20
2023-02-21T12:29:37.428Z,3.90
2023-02-21T12:32:13.306Z,3.53
2023-02-21T12:35:22.077Z,8.57
2023-02-21T12:38:20.435Z,11.38
2023-02-21T12:41:03.982Z,5.18
2023-02-21T12:43:49.576Z,7.28
2023-02-21T12:46:32.483Z,6.90
2023-02-21T12:49:04.757Z,7.85
2023-02-21T12:51:39.663Z,13.07
2023-02-21T12:54:14.534Z,5.43
2023-02-21T12:56:49.814Z,5.93
2023-02-21T12:59:24.264Z,7.05
2023-02-21T13:01:56.990Z,9.60
2023-02-21T13:04:55.162Z,9.90
2023-02-21T13:07:38.078Z,5.07
2023-02-21T13:10:19.880Z,11.18
2023-02-21T13:13:11.936Z,10.85
2023-02-21T13:15:42.404Z,6.03
2023-02-21T13:18:17.267Z,4.28
2023-02-21T13:20:57.982Z,8.45
2023-02-21T13:23:40.686Z,6.95
2023-02-21T13:26:16.736Z,8.88
2023-02-21T13:28:44.515Z,7.38
2023-02-21T13:31:24.011Z,7.95
2023-02-21T13:33:54.765Z,5.82
2023-02-21T13:36:27.356Z,5.85
2023-02-21T13:39:10.616Z,6.05
2023-02-21T13:41:40.726Z,6.25
2023-02-21T13:44:13.193Z,11.07
2023-02-21T13:46:40.739Z,6.50
2023-02-21T13:49:37.936Z,10.15
2023-02-21T13:52:35.770Z,6.45
2023-02-21T13:55:29.726Z,9.25
2023-02-21T13:58:00.573Z,3.60
2023-02-21T14:00:29.571Z,3.33
2023-02-21T14:03:06.567Z,2.53
2023-02-21T14:05:50.235Z,11.82
2023-02-21T14:08:47.369Z,5.78
2023-02-21T14:11:23.754Z,12.27
2023-02-21T14:13:56.598Z,5.85
2023-02-21T14:16:32.518Z,10.68
2023-02-21T14:19:07.851Z,5.25
2023-02-21T14:21:46.317Z,10.70
2023-02-21T14:24:25.179Z,8.45
2023-02-21T14:26:57.745Z,5.72
2023-02-21T14:29:32.333Z,8.75
2023-02-21T14:32:05.212Z,4.47
2023-02-21T14:34:47.293Z,12.38
2023-02-21T14:37:28.065Z,3.85
2023-02-21T14:40:14.797Z,10.43
2023-02-21T14:42:53.248Z,7.13
2023-02-21T14:45:57.638Z,11.00
2023-02-21T14:48:43.635Z,6.28
2023-02-21T14:51:28.153Z,8.20
2023-02-21T14:54:14.352Z,12.98
2023-02-21T14:56:52.994Z,14.77
2023-02-21T14:59:51.545Z,4.00
2023-02-21T15:02:28.096Z,10.02
2023-02-21T15:05:28.775Z,10.32
2023-02-21T15:08:23.812Z,3.17
2023-02-21T15:10:56.364Z,1.02
2023-02-21T15:13:30.696Z,2.10
2023-02-21T15:16:13.814Z,5.93
2023-02-21T15:19:01.562Z,4.82
2023-02-21T15:21:28.285Z,6.63
2023-02-21T15:24:12.990Z,1.90
2023-02-21T15:26:39.567Z,3.97
2023-02-21T15:29:07.772Z,3.50
2023-02-21T15:31:38.581Z,3.85
2023-02-21T15:34:05.351Z,3.42
2023-02-21T15:36:32.862Z,4.30
2023-02-21T15:39:08.017Z,6.15
2023-02-21T15:41:39.281Z,4.05
2023-02-21T15:44:12.116Z,9.05
2023-02-21T15:46:49.925Z,5.07
2023-02-21T15:49:19.394Z,7.03
2023-02-21T15:51:49.342Z,10.48
2023-02-21T15:54:17.234Z,4.90
2023-02-21T15:56:47.367Z,6.70
2023-02-21T15:59:24.641Z,10.45
2023-02-21T16:02:17.457Z,12.15
2023-02-21T16:04:49.059Z,9.10
2023-02-21T16:07:29.607Z,8.18
2023-02-21T16:10:03.188Z,5.72
2023-02-21T16:12:36.285Z,5.45
2023-02-21T16:15:19.468Z,6.25
2023-02-21T16:17:51.794Z,8.85
2023-02-21T16:20:26.444Z,12.27
2023-02-21T16:23:27.788Z,11.77
2023-02-21T16:26:16.576Z,4.95
2023-02-21T16:28:44.842Z,9.25
2023-02-21T16:31:33.879Z,7.80
2023-02-21T16:34:00.622Z,5.65
2023-02-21T16:36:30.470Z,6.15
2023-02-21T16:38:58.366Z,6.35
2023-02-21T16:41:25.839Z,7.38
2023-02-21T16:43:52.571Z,3.53
2023-02-21T16:46:28.457Z,5.85
2023-02-21T16:48:56.766Z,6.30
2023-02-21T16:51:23.370Z,2.65
2023-02-21T16:53:49.907Z,4.95
2023-02-21T16:56:18.110Z,4.43
2023-02-21T16:58:50.301Z,4.63
2023-02-21T17:01:33.554Z,4.75
2023-02-21T17:04:02.470Z,5.53
2023-02-21T17:06:29.453Z,8.25
2023-02-21T17:08:56.724Z,9.88
2023-02-21T17:11:23.296Z,10.15
2023-02-21T17:13:50.296Z,7.40
2023-02-21T17:16:17.725Z,8.75
2023-02-21T17:18:45.334Z,7.47
2023-02-21T17:21:12.349Z,7.20
2023-02-21T17:23:39.132Z,10.40
2023-02-21T17:26:05.689Z,7.07
2023-02-21T17:28:32.496Z,16.35
2023-02-21T17:30:59.082Z,3.92
2023-02-21T17:33:25.720Z,9.80
2023-02-21T17:35:55.318Z,5.78
2023-02-21T17:38:21.991Z,11.40
2023-02-21T17:40:49.580Z,5.13
2023-02-21T17:43:16.591Z,5.70
2023-02-21T17:45:43.248Z,9.35
2023-02-21T17:48:09.801Z,2.83
2023-02-21T17:50:36.355Z,6.32
2023-02-21T17:53:03.147Z,6.18
2023-02-21T17:55:30.137Z,6.53
2023-02-21T17:57:57.565Z,5.68
2023-02-21T18:00:29.233Z,4.03
2023-02-21T18:02:57.249Z,13.95
2023-02-21T18:05:24.157Z,4.90
2023-02-21T18:07:52.787Z,4.63
2023-02-21T18:10:21.467Z,10.35
2023-02-21T18:12:50.951Z,9.57
2023-02-21T18:15:21.412Z,3.38
2023-02-21T18:17:48.278Z,8.52
2023-02-21T18:20:16.263Z,6.53
2023-02-21T18:22:43.661Z,10.20
2023-02-21T18:25:10.341Z,4.70
2023-02-21T18:27:37.397Z,5.35
2023-02-21T18:30:04.939Z,4.95
2023-02-21T18:32:31.930Z,5.15
2023-02-21T18:34:59.835Z,9.55
2023-02-21T18:37:27.096Z,4.68
2023-02-21T18:39:55.463Z,9.30
2023-02-21T18:42:23.860Z,9.98
2023-02-21T18:44:51.575Z,5.10
2023-02-21T18:47:19.264Z,6.80
2023-02-21T18:49:47.327Z,6.82
2023-02-21T18:52:15.506Z,9.63
2023-02-21T18:54:48.648Z,7.75
2023-02-21T18:57:20.291Z,6.88
2023-02-21T18:59:47.392Z,10.13
2023-02-21T19:02:16.436Z,7.07
2023-02-21T19:04:43.879Z,10.13
2023-02-21T19:07:17.001Z,6.53
2023-02-21T19:09:46.397Z,9.05
2023-02-21T19:12:13.829Z,9.68
2023-02-21T19:14:40.615Z,8.20
2023-02-21T19:17:08.115Z,12.13
2023-02-21T19:19:36.017Z,7.65
2023-02-21T19:22:02.756Z,6.38
2023-02-21T19:24:29.365Z,9.63
2023-02-21T19:26:56.314Z,9.57
2023-02-21T19:29:23.165Z,7.53
2023-02-21T19:31:50.322Z,7.63
2023-02-21T19:34:17.041Z,8.75
2023-02-21T19:36:43.752Z,7.07
2023-02-21T19:39:11.657Z,9.30
2023-02-21T19:41:38.556Z,9.35
2023-02-21T19:44:05.532Z,12.18
2023-02-21T19:46:32.379Z,11.38
2023-02-21T19:48:59.633Z,8.43
2023-02-21T19:51:28.531Z,9.27
2023-02-21T19:53:58.764Z,8.88
2023-02-21T19:56:26.730Z,10.35
2023-02-21T19:58:53.690Z,8.82
2023-02-21T20:01:21.476Z,10.30
2023-02-21T20:03:49.499Z,8.90
2023-02-21T20:06:16.949Z,9.23
2023-02-21T20:08:47.700Z,10.90
2023-02-21T20:11:19.000Z,9.23
2023-02-21T20:13:45.943Z,10.38
2023-02-21T20:16:15.379Z,11.57
2023-02-21T20:18:46.494Z,10.13
2023-02-21T20:21:19.889Z,9.73
2023-02-21T20:23:46.716Z,9.90
2023-02-21T20:26:14.329Z,10.18
2023-02-21T20:28:41.129Z,14.30
2023-02-21T20:31:11.184Z,13.02
2023-02-21T20:33:38.581Z,14.15
2023-02-21T20:36:06.090Z,13.80
2023-02-21T20:38:32.954Z,11.77
2023-02-21T20:41:00.607Z,22.75
2023-02-21T20:43:27.324Z,19.33
2023-02-21T20:45:54.793Z,15.73
2023-02-21T20:48:25.306Z,15.43
2023-02-21T20:50:56.208Z,17.30
2023-02-21T20:53:23.729Z,15.13
2023-02-21T20:55:50.738Z,15.93
2023-02-21T20:58:17.545Z,15.00
2023-02-21T21:00:44.439Z,18.70
2023-02-21T21:03:15.310Z,15.18
2023-02-21T21:05:42.924Z,13.93
2023-02-21T21:08:11.967Z,17.60
2023-02-21T21:10:38.618Z,14.45
2023-02-21T21:13:05.652Z,14.35
2023-02-21T21:15:32.234Z,14.57
2023-02-21T21:17:59.589Z,15.25
2023-02-21T21:20:27.037Z,15.52
2023-02-21T21:22:53.674Z,16.70
2023-02-21T21:25:22.506Z,17.05
2023-02-21T21:27:49.331Z,15.50
2023-02-21T21:30:22.354Z,13.10
2023-02-21T21:32:49.792Z,15.88
2023-02-21T21:35:19.681Z,13.88
2023-02-21T21:37:47.713Z,18.40
2023-02-21T21:40:15.807Z,10.80
2023-02-21T21:42:48.716Z,12.50
2023-02-21T21:45:21.637Z,14.57
2023-02-21T21:47:51.023Z,12.45
2023-02-21T21:50:20.015Z,10.93
2023-02-21T21:52:53.241Z,12.93
2023-02-21T21:55:25.474Z,11.32
2023-02-21T21:57:56.066Z,19.27
2023-02-21T22:00:27.806Z,11.88
2023-02-21T22:02:57.527Z,14.60
2023-02-21T22:05:30.274Z,14.52
2023-02-21T22:07:57.853Z,11.27
2023-02-21T22:10:26.140Z,14.93
2023-02-21T22:12:54.153Z,10.70
2023-02-21T22:15:25.407Z,13.23
2023-02-21T22:17:53.181Z,12.32
2023-02-21T22:20:30.908Z,13.98
2023-02-21T22:23:00.755Z,16.67
2023-02-21T22:25:30.238Z,15.57
2023-02-21T22:27:58.009Z,14.02
2023-02-21T22:30:25.143Z,15.38
2023-02-21T22:32:51.820Z,15.88
2023-02-21T22:35:20.081Z,17.05
2023-02-21T22:37:57.651Z,21.67
2023-02-21T22:40:26.299Z,18.50
2023-02-21T22:42:54.721Z,19.95
2023-02-21T22:45:23.457Z,16.23
2023-02-21T22:47:51.691Z,16.20
2023-02-21T22:50:20.188Z,16.08
2023-02-21T22:52:59.042Z,22.23
2023-02-21T22:55:26.838Z,16.77
2023-02-21T22:57:58.166Z,16.13
2023-02-21T23:00:32.959Z,18.70
2023-02-21T23:03:01.442Z,23.35
2023-02-21T23:05:28.295Z,23.48
2023-02-21T23:07:59.610Z,20.90
2023-02-21T23:10:28.479Z,14.80
2023-02-21T23:13:00.479Z,20.27
2023-02-21T23:15:27.941Z,18.02
2023-02-21T23:17:54.833Z,17.70
2023-02-21T23:20:26.559Z,17.95
2023-02-21T23:22:54.464Z,18.40
2023-02-21T23:25:25.627Z,18.55
2023-02-21T23:27:57.366Z,19.02
2023-02-21T23:30:27.155Z,12.38
2023-02-21T23:32:55.340Z,17.30
2023-02-21T23:35:22.803Z,22.58
2023-02-21T23:37:53.093Z,19.83
2023-02-21T23:40:24.895Z,24.15
2023-02-21T23:42:54.591Z,17.73
2023-02-21T23:45:24.256Z,17.45
2023-02-21T23:47:54.049Z,20.15
2023-02-21T23:50:30.508Z,18.02
2023-02-21T23:52:59.168Z,18.38
2023-02-21T23:55:29.714Z,15.90
2023-02-21T23:57:59.832Z,19.33
